createdAt,value
2018-04-27T00:01:46.689Z,6.47
2018-04-27T00:04:14.155Z,6.12
2018-04-27T00:06:41.662Z,7.95
2018-04-27T00:09:09.161Z,6.15
2018-04-27T00:11:37.432Z,6.50
2018-04-27T00:14:05.823Z,6.45
2018-04-27T00:16:33.292Z,7.20
2018-04-27T00:19:00.813Z,7.72
2018-04-27T00:21:28.284Z,6.20
2018-04-27T00:23:55.814Z,6.78
2018-04-27T00:26:23.833Z,6.80
2018-04-27T00:28:51.331Z,6.90
2018-04-27T00:31:18.968Z,6.78
2018-04-27T00:33:46.492Z,7.12
2018-04-27T00:36:14.736Z,6.82
2018-04-27T00:38:43.177Z,6.97
2018-04-27T00:41:10.656Z,7.65
2018-04-27T00:43:38.144Z,7.35
2018-04-27T00:46:05.631Z,7.60
2018-04-27T00:48:33.159Z,6.57
2018-04-27T00:51:00.703Z,6.75
2018-04-27T00:53:28.257Z,8.30
2018-04-27T00:55:55.720Z,8.32
2018-04-27T00:58:23.192Z,9.13
2018-04-27T01:00:50.740Z,7.85
2018-04-27T01:03:18.274Z,8.30
2018-04-27T01:05:45.767Z,7.35
2018-04-27T01:08:13.254Z,10.02
2018-04-27T01:10:41.517Z,7.70
2018-04-27T01:13:09.098Z,8.35
2018-04-27T01:15:36.603Z,7.70
2018-04-27T01:18:04.109Z,9.48
2018-04-27T01:20:31.598Z,9.93
2018-04-27T01:22:59.105Z,10.02
2018-04-27T01:25:26.583Z,9.98
2018-04-27T01:27:54.126Z,10.43
2018-04-27T01:30:22.429Z,9.82
2018-04-27T01:32:50.238Z,9.52
2018-04-27T01:35:17.934Z,10.60
2018-04-27T01:37:45.471Z,9.70
2018-04-27T01:40:15.004Z,10.05
2018-04-27T01:42:44.594Z,10.65
2018-04-27T01:45:12.081Z,10.13
2018-04-27T01:47:39.735Z,9.65
2018-04-27T01:50:07.283Z,9.70
2018-04-27T01:52:35.578Z,10.65
2018-04-27T01:55:03.113Z,10.60
2018-04-27T01:57:30.686Z,9.15
2018-04-27T01:59:58.173Z,8.18
2018-04-27T02:02:26.477Z,8.93
2018-04-27T02:04:53.981Z,8.38
2018-04-27T02:07:21.490Z,8.70
2018-04-27T02:09:48.991Z,7.95
2018-04-27T02:12:17.241Z,8.73
2018-04-27T02:14:44.789Z,8.10
2018-04-27T02:17:12.304Z,7.97
2018-04-27T02:19:39.829Z,7.90
2018-04-27T02:22:07.340Z,8.63
2018-04-27T02:24:34.853Z,8.25
2018-04-27T02:27:02.377Z,8.10
2018-04-27T02:29:29.891Z,8.23
2018-04-27T02:31:57.465Z,7.15
2018-04-27T02:34:24.966Z,8.52
2018-04-27T02:36:52.522Z,8.15
2018-04-27T02:39:19.993Z,8.10
2018-04-27T02:41:48.265Z,7.35
2018-04-27T02:44:17.162Z,9.45
2018-04-27T02:46:44.725Z,8.65
2018-04-27T02:49:13.046Z,8.32
2018-04-27T02:51:40.552Z,8.70
2018-04-27T02:54:08.065Z,9.50
2018-04-27T02:56:35.533Z,9.90
2018-04-27T02:59:03.134Z,8.50
2018-04-27T03:01:30.645Z,7.68
2018-04-27T03:03:58.146Z,8.50
2018-04-27T03:06:25.645Z,8.57
2018-04-27T03:08:53.265Z,8.73
2018-04-27T03:11:20.833Z,7.55
2018-04-27T03:13:48.373Z,8.82
2018-04-27T03:16:15.886Z,8.77
2018-04-27T03:18:43.454Z,7.60
2018-04-27T03:21:10.920Z,7.62
2018-04-27T03:23:38.376Z,7.90
2018-04-27T03:26:05.875Z,7.90
2018-04-27T03:28:34.133Z,8.23
2018-04-27T03:31:01.616Z,8.10
2018-04-27T03:33:29.140Z,8.18
2018-04-27T03:35:56.632Z,7.72
2018-04-27T03:38:24.114Z,6.95
2018-04-27T03:40:51.638Z,8.13
2018-04-27T03:43:20.086Z,7.68
2018-04-27T03:45:47.622Z,8.30
2018-04-27T03:48:15.093Z,7.07
2018-04-27T03:50:42.576Z,8.38
2018-04-27T03:53:10.041Z,8.20
2018-04-27T03:55:38.360Z,8.90
2018-04-27T03:58:05.949Z,7.80
2018-04-27T04:00:45.155Z,8.07
2018-04-27T04:03:24.205Z,7.40
2018-04-27T04:05:51.692Z,8.40
2018-04-27T04:08:19.145Z,8.63
2018-04-27T04:10:46.613Z,9.23
2018-04-27T04:13:14.088Z,8.23
2018-04-27T04:15:41.569Z,7.97
2018-04-27T04:18:09.072Z,9.70
2018-04-27T04:20:36.537Z,10.10
2018-04-27T04:23:03.999Z,9.60
2018-04-27T04:25:31.502Z,10.05
2018-04-27T04:27:59.018Z,10.48
2018-04-27T04:30:27.498Z,11.70
2018-04-27T04:32:54.978Z,10.85
2018-04-27T04:35:22.435Z,12.10
2018-04-27T04:37:49.913Z,12.40
2018-04-27T04:40:17.388Z,12.43
2018-04-27T04:42:44.878Z,13.30
2018-04-27T04:45:12.381Z,12.93
2018-04-27T04:47:39.805Z,13.95
2018-04-27T04:50:07.274Z,13.10
2018-04-27T04:52:34.751Z,13.98
2018-04-27T04:55:02.775Z,15.02
2018-04-27T04:57:30.305Z,14.80
2018-04-27T04:59:57.839Z,14.77
2018-04-27T05:02:29.726Z,15.23
2018-04-27T05:04:57.328Z,14.70
2018-04-27T05:07:24.810Z,13.95
2018-04-27T05:09:52.486Z,13.55
2018-04-27T05:12:21.549Z,14.50
2018-04-27T05:14:50.203Z,14.27
2018-04-27T05:17:17.984Z,13.25
2018-04-27T05:20:00.792Z,14.57
2018-04-27T05:22:28.276Z,14.35
2018-04-27T05:24:55.733Z,14.90
2018-04-27T05:27:23.211Z,16.12
2018-04-27T05:29:50.666Z,13.85
2018-04-27T05:32:18.126Z,14.57
2018-04-27T05:34:45.592Z,15.82
2018-04-27T05:37:13.105Z,14.65
2018-04-27T05:39:40.557Z,15.40
2018-04-27T05:42:08.888Z,14.38
2018-04-27T05:44:36.340Z,15.55
2018-04-27T05:47:03.848Z,13.65
2018-04-27T05:49:32.113Z,13.48
2018-04-27T05:51:59.616Z,12.68
2018-04-27T05:54:27.089Z,13.48
2018-04-27T05:56:54.541Z,11.68
2018-04-27T05:59:22.005Z,12.70
2018-04-27T06:01:49.457Z,12.55
2018-04-27T06:04:16.995Z,12.13
2018-04-27T06:06:44.382Z,13.25
2018-04-27T06:09:11.856Z,12.43
2018-04-27T06:11:39.322Z,11.12
2018-04-27T06:14:06.778Z,12.20
2018-04-27T06:16:34.284Z,11.75
2018-04-27T06:19:01.741Z,12.68
2018-04-27T06:21:29.197Z,10.23
2018-04-27T06:23:56.655Z,12.80
2018-04-27T06:26:24.132Z,12.40
2018-04-27T06:28:51.677Z,11.25
2018-04-27T06:31:19.090Z,11.73
2018-04-27T06:33:47.340Z,12.98
2018-04-27T06:36:14.802Z,11.02
2018-04-27T06:38:42.253Z,11.18
2018-04-27T06:41:09.760Z,10.75
2018-04-27T06:43:37.257Z,11.43
2018-04-27T06:46:04.731Z,11.55
2018-04-27T06:48:32.213Z,11.18
2018-04-27T06:50:59.708Z,11.20
2018-04-27T06:53:27.161Z,11.00
2018-04-27T06:55:54.624Z,11.10
2018-04-27T06:58:22.100Z,10.45
2018-04-27T07:00:49.556Z,11.25
2018-04-27T07:03:17.013Z,11.73
2018-04-27T07:05:44.467Z,10.25
2018-04-27T07:08:11.952Z,10.75
2018-04-27T07:10:39.411Z,11.68
2018-04-27T07:13:06.865Z,11.23
2018-04-27T07:15:34.337Z,10.98
2018-04-27T07:18:02.601Z,10.20
2018-04-27T07:20:30.058Z,11.80
2018-04-27T07:22:57.532Z,11.07
2018-04-27T07:25:24.985Z,10.88
2018-04-27T07:27:53.212Z,10.05
2018-04-27T07:30:20.689Z,9.70
2018-04-27T07:32:48.162Z,10.45
2018-04-27T07:35:15.668Z,10.70
2018-04-27T07:37:43.164Z,10.15
2018-04-27T07:40:10.658Z,10.68
2018-04-27T07:42:38.113Z,11.50
2018-04-27T07:45:05.602Z,10.38
2018-04-27T07:47:33.089Z,9.23
2018-04-27T07:50:00.579Z,9.07
2018-04-27T07:52:28.797Z,9.50
2018-04-27T07:54:56.278Z,9.20
2018-04-27T07:57:23.741Z,9.00
2018-04-27T07:59:51.226Z,9.27
2018-04-27T08:02:18.893Z,10.20
2018-04-27T08:04:47.165Z,10.20
2018-04-27T08:07:15.411Z,10.32
2018-04-27T08:09:42.913Z,10.75
2018-04-27T08:12:10.393Z,10.20
2018-04-27T08:14:37.916Z,8.35
2018-04-27T08:17:06.170Z,10.50
2018-04-27T08:19:33.656Z,9.80
2018-04-27T08:22:01.118Z,10.68
2018-04-27T08:24:28.619Z,9.13
2018-04-27T08:26:56.088Z,8.15
2018-04-27T08:29:23.576Z,8.75
2018-04-27T08:31:51.052Z,8.25
2018-04-27T08:34:18.509Z,9.15
2018-04-27T08:36:45.975Z,8.32
2018-04-27T08:39:13.445Z,7.70
2018-04-27T08:41:40.962Z,8.82
2018-04-27T08:44:08.419Z,6.12
2018-04-27T08:46:36.664Z,9.65
2018-04-27T08:49:04.144Z,7.30
2018-04-27T08:51:31.604Z,6.45
2018-04-27T08:53:59.836Z,7.97
2018-04-27T08:56:27.288Z,7.22
2018-04-27T08:58:54.760Z,7.10
2018-04-27T09:01:22.233Z,6.12
2018-04-27T09:03:49.695Z,5.30
2018-04-27T09:06:17.170Z,6.28
2018-04-27T09:08:44.613Z,6.90
2018-04-27T09:11:12.074Z,7.50
2018-04-27T09:13:40.318Z,6.10
2018-04-27T09:16:07.836Z,6.75
2018-04-27T09:18:35.353Z,5.25
2018-04-27T09:21:02.811Z,6.32
2018-04-27T09:23:30.313Z,5.87
2018-04-27T09:25:57.769Z,5.82
2018-04-27T09:28:25.222Z,6.70
2018-04-27T09:30:52.720Z,5.72
2018-04-27T09:33:20.190Z,6.43
2018-04-27T09:35:47.670Z,8.00
2018-04-27T09:38:15.891Z,7.40
2018-04-27T09:40:43.388Z,8.68
2018-04-27T09:43:10.844Z,7.70
2018-04-27T09:45:38.305Z,10.63
2018-04-27T09:48:06.537Z,9.63
2018-04-27T09:50:34.016Z,9.82
2018-04-27T09:53:01.517Z,10.95
2018-04-27T09:55:28.993Z,8.98
2018-04-27T09:57:56.469Z,10.40
2018-04-27T10:00:23.920Z,10.27
2018-04-27T10:02:51.378Z,9.00
2018-04-27T10:05:18.840Z,11.02
2018-04-27T10:07:46.303Z,10.00
2018-04-27T10:10:13.755Z,9.20
2018-04-27T10:12:41.230Z,8.30
2018-04-27T10:15:08.678Z,10.43
2018-04-27T10:17:36.184Z,10.15
2018-04-27T10:20:03.662Z,8.48
2018-04-27T10:22:31.246Z,9.02
2018-04-27T10:24:58.699Z,8.95
2018-04-27T10:27:26.157Z,9.10
2018-04-27T10:29:53.638Z,9.35
2018-04-27T10:32:21.087Z,8.63
2018-04-27T10:34:48.558Z,8.20
2018-04-27T10:37:16.065Z,8.13
2018-04-27T10:39:43.527Z,7.72
2018-04-27T10:42:10.981Z,6.18
2018-04-27T10:44:38.433Z,6.65
2018-04-27T10:47:05.942Z,6.72
2018-04-27T10:49:33.453Z,6.28
2018-04-27T10:52:00.927Z,6.25
2018-04-27T10:54:28.400Z,5.65
2018-04-27T10:56:55.852Z,6.93
2018-04-27T10:59:23.315Z,6.85
2018-04-27T11:01:50.782Z,7.93
2018-04-27T11:04:18.252Z,7.70
2018-04-27T11:06:46.477Z,6.37
2018-04-27T11:09:13.941Z,7.85
2018-04-27T11:11:41.438Z,6.70
2018-04-27T11:14:08.918Z,5.80
2018-04-27T11:16:36.414Z,5.68
2018-04-27T11:19:03.877Z,4.80
2018-04-27T11:21:31.444Z,4.40
2018-04-27T11:23:58.925Z,5.30
2018-04-27T11:26:26.412Z,5.50
2018-04-27T11:28:53.896Z,5.62
2018-04-27T11:31:21.360Z,5.50
2018-04-27T11:33:48.844Z,5.78
2018-04-27T11:36:16.295Z,5.70
2018-04-27T11:38:43.777Z,5.95
2018-04-27T11:41:12.038Z,4.03
2018-04-27T11:43:39.480Z,4.68
2018-04-27T11:46:06.948Z,5.22
2018-04-27T11:48:34.430Z,5.03
2018-04-27T11:51:01.893Z,5.12
2018-04-27T11:53:29.409Z,5.90
2018-04-27T11:55:56.876Z,5.37
2018-04-27T11:58:25.065Z,4.18
2018-04-27T12:00:52.540Z,3.80
2018-04-27T12:03:20.048Z,5.40
2018-04-27T12:05:47.516Z,6.37
2018-04-27T12:08:14.992Z,4.60
2018-04-27T12:10:42.589Z,4.85
2018-04-27T12:13:09.971Z,6.20
2018-04-27T12:15:37.449Z,4.80
2018-04-27T12:18:04.950Z,5.18
2018-04-27T12:20:32.490Z,4.45
2018-04-27T12:23:00.737Z,4.28
2018-04-27T12:25:28.196Z,3.70
2018-04-27T12:27:55.686Z,4.82
2018-04-27T12:30:23.171Z,4.65
2018-04-27T12:32:50.640Z,4.18
2018-04-27T12:35:18.106Z,4.45
2018-04-27T12:37:45.594Z,5.07
2018-04-27T12:40:13.060Z,4.00
2018-04-27T12:42:40.533Z,4.97
2018-04-27T12:45:08.107Z,4.18
2018-04-27T12:47:35.549Z,3.80
2018-04-27T12:50:03.056Z,4.97
2018-04-27T12:52:30.539Z,4.40
2018-04-27T12:54:58.029Z,3.97
2018-04-27T12:57:25.500Z,4.30
2018-04-27T12:59:52.969Z,3.33
2018-04-27T13:02:20.448Z,4.05
2018-04-27T13:04:47.909Z,3.92
2018-04-27T13:07:15.352Z,4.30
2018-04-27T13:09:42.830Z,4.45
2018-04-27T13:12:10.313Z,3.95
2018-04-27T13:14:37.813Z,4.30
2018-04-27T13:17:05.289Z,4.33
2018-04-27T13:19:32.753Z,4.30
2018-04-27T13:22:00.258Z,3.72
2018-04-27T13:24:27.737Z,4.43
2018-04-27T13:26:55.206Z,4.45
2018-04-27T13:29:22.675Z,5.37
2018-04-27T13:31:50.167Z,5.50
2018-04-27T13:34:18.490Z,5.75
2018-04-27T13:36:45.958Z,6.00
2018-04-27T13:39:13.434Z,4.50
2018-04-27T13:41:40.953Z,4.12
2018-04-27T13:44:08.432Z,5.35
2018-04-27T13:46:35.934Z,5.22
2018-04-27T13:49:03.418Z,4.47
2018-04-27T13:51:31.009Z,4.53
2018-04-27T13:53:58.496Z,4.30
2018-04-27T13:56:26.746Z,5.03
2018-04-27T13:58:54.241Z,3.60
2018-04-27T14:01:21.739Z,5.53
2018-04-27T14:03:49.314Z,4.70
2018-04-27T14:06:16.809Z,4.57
2018-04-27T14:08:44.355Z,4.68
2018-04-27T14:11:12.648Z,5.30
2018-04-27T14:13:40.139Z,4.33
2018-04-27T14:16:07.617Z,4.37
2018-04-27T14:18:35.102Z,4.33
2018-04-27T14:21:02.582Z,5.30
2018-04-27T14:23:30.043Z,4.40
2018-04-27T14:25:57.499Z,4.50
2018-04-27T14:28:25.001Z,3.75
2018-04-27T14:30:52.477Z,3.13
2018-04-27T14:33:19.937Z,3.57
2018-04-27T14:35:47.401Z,3.50
2018-04-27T14:38:14.864Z,4.60
2018-04-27T14:40:42.328Z,4.43
2018-04-27T14:43:10.589Z,4.03
2018-04-27T14:45:38.097Z,3.97
2018-04-27T14:48:05.560Z,3.60
2018-04-27T14:50:33.028Z,4.47
2018-04-27T14:53:00.500Z,4.93
2018-04-27T14:55:27.976Z,5.27
2018-04-27T14:57:55.494Z,4.47
2018-04-27T15:00:22.970Z,3.67
2018-04-27T15:02:50.437Z,4.53
2018-04-27T15:05:17.900Z,4.70
2018-04-27T15:07:45.368Z,3.72
2018-04-27T15:10:12.839Z,4.67
2018-04-27T15:12:40.295Z,5.07
2018-04-27T15:15:07.757Z,4.80
2018-04-27T15:17:35.241Z,4.60
2018-04-27T15:20:02.780Z,4.53
2018-04-27T15:22:30.255Z,5.03
2018-04-27T15:24:57.725Z,4.50
2018-04-27T15:27:25.240Z,4.53
2018-04-27T15:29:53.522Z,4.10
2018-04-27T15:32:21.745Z,4.20
2018-04-27T15:34:49.200Z,4.70
2018-04-27T15:37:16.680Z,4.47
2018-04-27T15:39:44.169Z,3.78
2018-04-27T15:42:11.651Z,4.43
2018-04-27T15:44:39.133Z,3.47
2018-04-27T15:47:06.618Z,3.33
2018-04-27T15:49:34.212Z,3.67
2018-04-27T15:52:01.757Z,3.65
2018-04-27T15:54:29.204Z,3.50
2018-04-27T15:56:56.718Z,2.85
2018-04-27T15:59:24.178Z,3.20
2018-04-27T16:01:51.646Z,3.12
2018-04-27T16:04:19.143Z,3.50
2018-04-27T16:06:46.615Z,3.42
2018-04-27T16:09:14.131Z,2.50
2018-04-27T16:11:41.584Z,2.80
2018-04-27T16:14:09.071Z,3.12
2018-04-27T16:16:37.325Z,3.12
2018-04-27T16:19:04.878Z,2.87
2018-04-27T16:21:32.352Z,3.17
2018-04-27T16:23:59.863Z,2.25
2018-04-27T16:26:29.828Z,2.40
2018-04-27T16:28:58.053Z,2.50
2018-04-27T16:31:25.533Z,2.53
2018-04-27T16:33:53.019Z,2.45
2018-04-27T16:36:21.297Z,2.35
2018-04-27T16:38:49.567Z,2.15
2018-04-27T16:41:17.070Z,2.40
2018-04-27T16:43:44.559Z,2.30
2018-04-27T16:46:12.041Z,2.83
2018-04-27T16:48:39.596Z,1.90
2018-04-27T16:51:07.057Z,2.22
2018-04-27T16:53:34.536Z,2.15
2018-04-27T16:56:02.000Z,16.48
2018-04-27T16:58:29.536Z,2.95
2018-04-27T17:00:57.781Z,2.70
2018-04-27T17:03:25.271Z,2.42
2018-04-27T17:05:52.765Z,2.70
2018-04-27T17:08:20.239Z,2.33
2018-04-27T17:10:47.706Z,2.20
2018-04-27T17:13:15.174Z,2.35
2018-04-27T17:15:42.643Z,2.58
2018-04-27T17:18:10.190Z,2.50
2018-04-27T17:20:37.673Z,2.50
2018-04-27T17:23:05.941Z,2.45
2018-04-27T17:25:33.417Z,1.80
2018-04-27T17:28:00.899Z,2.00
2018-04-27T17:30:28.477Z,2.35
2018-04-27T17:32:55.952Z,2.12
2018-04-27T17:35:23.504Z,3.15
2018-04-27T17:37:50.951Z,2.00
2018-04-27T17:40:18.439Z,2.08
2018-04-27T17:42:45.904Z,2.60
2018-04-27T17:45:13.411Z,2.40
2018-04-27T17:47:40.916Z,2.20
2018-04-27T17:50:08.402Z,2.62
2018-04-27T17:52:35.882Z,2.12
2018-04-27T17:55:03.349Z,3.10
2018-04-27T17:57:30.820Z,2.55
2018-04-27T17:59:58.321Z,2.20
2018-04-27T18:02:27.500Z,2.45
2018-04-27T18:04:54.995Z,2.50
2018-04-27T18:07:22.457Z,2.37
2018-04-27T18:09:49.950Z,2.40
2018-04-27T18:12:18.418Z,2.37
2018-04-27T18:14:45.856Z,2.67
2018-04-27T18:17:13.381Z,2.83
2018-04-27T18:19:41.635Z,2.37
2018-04-27T18:22:09.112Z,3.03
2018-04-27T18:24:37.038Z,2.80
2018-04-27T18:27:04.533Z,2.72
2018-04-27T18:29:32.025Z,3.30
2018-04-27T18:31:59.505Z,4.03
2018-04-27T18:34:27.000Z,2.87
2018-04-27T18:36:55.241Z,3.33
2018-04-27T18:39:22.763Z,3.53
2018-04-27T18:41:50.181Z,3.08
2018-04-27T18:44:17.701Z,3.12
2018-04-27T18:46:45.164Z,3.40
2018-04-27T18:49:12.613Z,3.80
2018-04-27T18:51:40.072Z,3.58
2018-04-27T18:54:07.560Z,4.45
2018-04-27T18:56:36.522Z,4.32
2018-04-27T18:59:04.014Z,3.53
2018-04-27T19:01:31.484Z,4.05
2018-04-27T19:03:59.746Z,4.82
2018-04-27T19:06:27.277Z,4.03
2018-04-27T19:08:54.780Z,5.37
2018-04-27T19:11:22.292Z,4.20
2018-04-27T19:13:49.772Z,3.92
2018-04-27T19:16:17.623Z,3.42
2018-04-27T19:18:45.098Z,4.72
2018-04-27T19:21:13.252Z,4.05
2018-04-27T19:23:40.732Z,3.25
2018-04-27T19:26:08.242Z,3.62
2018-04-27T19:28:35.708Z,3.15
2018-04-27T19:31:03.205Z,4.37
2018-04-27T19:33:30.680Z,3.47
2018-04-27T19:35:58.152Z,3.85
2018-04-27T19:38:25.623Z,3.85
2018-04-27T19:40:53.103Z,3.70
2018-04-27T19:43:20.578Z,3.33
2018-04-27T19:45:48.036Z,3.60
2018-04-27T19:48:15.517Z,3.87
2018-04-27T19:50:43.795Z,4.30
2018-04-27T19:53:12.024Z,5.90
2018-04-27T19:55:39.513Z,9.63
2018-04-27T19:58:06.956Z,7.30
2018-04-27T20:00:35.200Z,7.78
2018-04-27T20:03:03.509Z,7.07
2018-04-27T20:05:31.009Z,5.35
2018-04-27T20:07:58.480Z,5.72
2018-04-27T20:10:40.987Z,4.37
2018-04-27T20:13:23.220Z,5.10
2018-04-27T20:16:01.668Z,4.35
2018-04-27T20:18:29.124Z,4.00
2018-04-27T20:20:59.214Z,4.97
2018-04-27T20:23:31.564Z,4.50
2018-04-27T20:25:59.049Z,4.60
2018-04-27T20:28:27.410Z,4.15
2018-04-27T20:30:54.897Z,3.75
2018-04-27T20:33:22.350Z,4.70
2018-04-27T20:35:50.701Z,4.30
2018-04-27T20:38:20.759Z,3.85
2018-04-27T20:40:48.210Z,3.45
2018-04-27T20:43:16.605Z,4.40
2018-04-27T20:45:44.056Z,3.87
2018-04-27T20:48:15.088Z,4.12
2018-04-27T20:51:01.199Z,5.18
2018-04-27T20:56:43.052Z,4.82
2018-04-27T20:59:10.520Z,4.22
2018-04-27T21:01:37.989Z,4.97
2018-04-27T21:04:05.478Z,3.95
2018-04-27T21:06:32.989Z,3.85
2018-04-27T21:09:00.439Z,4.70
2018-04-27T21:11:31.585Z,3.97
2018-04-27T21:13:59.090Z,4.32
2018-04-27T21:16:26.573Z,5.12
2018-04-27T21:18:54.041Z,5.25
2018-04-27T21:21:21.501Z,4.85
2018-04-27T21:23:48.988Z,4.60
2018-04-27T21:26:18.213Z,5.00
2018-04-27T21:28:45.710Z,4.50
2018-04-27T21:31:13.181Z,5.22
2018-04-27T21:36:43.944Z,4.50
2018-04-27T21:39:13.118Z,3.97
2018-04-27T21:41:45.392Z,4.50
2018-04-27T21:44:13.752Z,5.07
2018-04-27T21:46:41.205Z,5.10
2018-04-27T21:49:11.901Z,5.47
2018-04-27T21:51:40.158Z,4.62
2018-04-27T21:54:10.309Z,5.30
2018-04-27T21:59:46.753Z,5.28
2018-04-27T22:05:54.076Z,5.05
2018-04-27T22:08:32.667Z,5.28
2018-04-27T22:11:00.809Z,5.30
2018-04-27T22:13:33.841Z,5.40
2018-04-27T22:16:04.093Z,5.75
2018-04-27T22:18:46.534Z,6.22
2018-04-27T22:21:15.260Z,5.75
2018-04-27T22:23:45.674Z,6.40
2018-04-27T22:26:21.366Z,6.25
2018-04-27T22:28:54.280Z,5.93
2018-04-27T22:31:25.013Z,6.20
2018-04-27T22:34:09.135Z,5.70
2018-04-27T22:36:45.262Z,6.78
2018-04-27T22:39:20.445Z,6.68
2018-04-27T22:41:58.174Z,6.57
2018-04-27T22:44:51.697Z,7.57
2018-04-27T22:47:28.521Z,6.90
2018-04-27T22:49:57.948Z,6.97
2018-04-27T22:52:29.051Z,6.37
2018-04-27T22:55:00.519Z,6.12
2018-04-27T23:00:41.216Z,6.62
2018-04-27T23:03:14.074Z,5.90
2018-04-27T23:05:42.425Z,6.68
2018-04-27T23:08:09.880Z,6.35
2018-04-27T23:10:39.998Z,7.12
2018-04-27T23:13:07.470Z,6.95
2018-04-27T23:15:41.411Z,6.30
2018-04-27T23:18:11.326Z,6.22
2018-04-27T23:20:38.788Z,7.20
2018-04-27T23:23:10.725Z,6.60
2018-04-27T23:25:53.075Z,7.75
2018-04-27T23:28:20.534Z,6.95
2018-04-27T23:30:47.986Z,7.30
2018-04-27T23:33:15.454Z,8.25
2018-04-27T23:35:52.736Z,7.87
2018-04-27T23:38:20.212Z,7.62
2018-04-27T23:40:47.704Z,8.00
2018-04-27T23:43:15.194Z,7.65
2018-04-27T23:45:43.464Z,7.65
2018-04-27T23:48:11.826Z,7.72
2018-04-27T23:50:39.296Z,7.70
2018-04-27T23:53:06.740Z,7.50
2018-04-27T23:55:37.655Z,7.32
2018-04-27T23:58:05.886Z,7.50
